createdAt,value
2023-02-06T00:07:56.751Z,55.55
2023-02-06T00:17:58.903Z,56.52
2023-02-06T00:28:01.097Z,57.17
2023-02-06T00:38:03.336Z,54.98
2023-02-06T00:48:05.812Z,55.67
2023-02-06T00:58:08.026Z,56.05
2023-02-06T01:08:10.214Z,55.63
2023-02-06T01:18:12.769Z,56.31
2023-02-06T01:28:15.989Z,55.68
2023-02-06T01:38:18.195Z,56.70
2023-02-06T01:48:35.716Z,56.44
2023-02-06T01:58:41.433Z,56.67
2023-02-06T02:08:46.064Z,57.44
2023-02-06T02:19:10.001Z,57.13
2023-02-06T02:29:36.278Z,57.15
2023-02-06T02:39:49.555Z,57.12
2023-02-06T02:49:53.218Z,57.64
2023-02-06T02:59:57.733Z,56.30
2023-02-06T03:10:09.660Z,57.13
2023-02-06T03:20:12.638Z,59.22
2023-02-06T03:30:16.295Z,57.83
2023-02-06T03:40:18.705Z,57.62
2023-02-06T03:50:21.345Z,56.94
2023-02-06T04:00:25.432Z,58.58
2023-02-06T04:10:27.722Z,56.89
2023-02-06T04:20:32.941Z,55.97
2023-02-06T04:30:35.078Z,58.40
2023-02-06T04:40:37.208Z,57.91
2023-02-06T04:50:39.310Z,56.64
2023-02-06T05:00:42.980Z,56.86
2023-02-06T05:10:45.726Z,59.06
2023-02-06T05:20:48.057Z,58.18
2023-02-06T05:30:50.697Z,60.68
2023-02-06T05:40:53.860Z,60.14
2023-02-06T05:50:58.245Z,59.37
2023-02-06T06:01:01.639Z,60.51
2023-02-06T06:11:03.804Z,60.39
2023-02-06T06:21:06.135Z,60.92
2023-02-06T06:31:12.047Z,59.90
2023-02-06T06:41:14.348Z,61.62
2023-02-06T06:51:16.662Z,61.29
2023-02-06T07:01:19.431Z,61.60
2023-02-06T07:11:21.861Z,61.18
2023-02-06T07:21:23.957Z,61.31
2023-02-06T07:31:26.118Z,61.83
2023-02-06T07:41:28.243Z,64.52
2023-02-06T07:51:30.582Z,60.20
2023-02-06T08:01:32.769Z,61.66
2023-02-06T08:11:36.073Z,61.98
2023-02-06T08:21:38.448Z,61.99
2023-02-06T08:31:42.091Z,63.72
2023-02-06T08:41:44.584Z,62.64
2023-02-06T08:51:47.659Z,65.17
2023-02-06T09:01:49.887Z,62.92
2023-02-06T09:11:53.428Z,61.86
2023-02-06T09:21:55.861Z,63.26
2023-02-06T09:31:58.092Z,63.78
2023-02-06T09:42:05.317Z,62.45
2023-02-06T09:52:17.171Z,61.81
2023-02-06T10:02:41.435Z,62.68
2023-02-06T10:12:57.411Z,62.73
2023-02-06T10:23:16.400Z,61.15
2023-02-06T10:33:41.518Z,59.58
2023-02-06T10:43:46.441Z,60.43
2023-02-06T10:53:58.597Z,59.80
2023-02-06T11:04:39.691Z,59.68
2023-02-06T11:14:42.061Z,57.53
2023-02-06T11:25:04.658Z,59.49
2023-02-06T11:35:31.147Z,61.86
2023-02-06T11:45:34.457Z,59.40
2023-02-06T11:55:38.861Z,62.86
2023-02-06T12:05:42.941Z,60.82
2023-02-06T12:15:48.475Z,61.64
2023-02-06T12:25:54.820Z,62.01
2023-02-06T12:36:03.233Z,61.04
2023-02-06T12:46:14.354Z,61.12
2023-02-06T12:56:40.725Z,59.49
2023-02-06T13:06:48.372Z,62.37
2023-02-06T13:16:51.780Z,60.36
2023-02-06T13:26:56.294Z,60.77
2023-02-06T13:37:37.507Z,60.86
2023-02-06T13:47:48.040Z,60.94
2023-02-06T13:58:24.753Z,60.04
2023-02-06T14:08:49.309Z,62.11
2023-02-06T14:19:05.169Z,62.40
2023-02-06T14:29:29.129Z,60.93
2023-02-06T14:39:55.935Z,59.63
2023-02-06T14:50:00.930Z,59.66
2023-02-06T15:00:18.176Z,58.89
2023-02-06T15:10:28.573Z,58.44
2023-02-06T15:20:36.166Z,58.36
2023-02-06T15:30:38.970Z,58.86
2023-02-06T15:40:44.554Z,58.65
2023-02-06T15:51:19.591Z,59.48
2023-02-06T16:01:21.994Z,59.29
2023-02-06T16:11:50.982Z,58.30
2023-02-06T16:22:17.566Z,58.18
2023-02-06T16:32:28.686Z,56.15
2023-02-06T16:42:37.712Z,55.76
2023-02-06T16:52:51.777Z,56.16
2023-02-06T17:02:54.825Z,55.70
2023-02-06T17:12:56.974Z,56.24
2023-02-06T17:22:59.088Z,55.80
2023-02-06T17:33:02.196Z,57.00
2023-02-06T17:43:04.807Z,57.11
2023-02-06T17:53:12.948Z,57.55
2023-02-06T18:03:18.442Z,57.31
2023-02-06T18:13:21.494Z,57.96
2023-02-06T18:23:24.781Z,56.53
2023-02-06T18:33:26.954Z,57.71
2023-02-06T18:43:29.439Z,57.73
2023-02-06T18:53:32.665Z,57.57
2023-02-06T19:03:36.729Z,58.15
2023-02-06T19:13:40.550Z,57.86
2023-02-06T19:23:45.589Z,58.08
2023-02-06T19:33:49.093Z,58.70
2023-02-06T19:53:35.528Z,61.14
2023-02-06T20:03:38.177Z,59.12
2023-02-06T20:13:40.858Z,60.21
2023-02-06T20:23:43.164Z,60.91
2023-02-06T20:33:46.157Z,59.64
2023-02-06T20:43:48.542Z,59.94
2023-02-06T20:53:51.113Z,60.01
2023-02-06T21:03:56.259Z,61.11
2023-02-06T21:14:01.560Z,60.44
2023-02-06T21:24:04.451Z,61.85
2023-02-06T21:34:18.417Z,61.17
2023-02-06T21:44:23.790Z,59.02
2023-02-06T21:54:25.892Z,58.25
2023-02-06T22:04:28.045Z,58.89
2023-02-06T22:14:30.233Z,59.30
2023-02-06T22:24:32.567Z,58.62
2023-02-06T22:34:34.876Z,57.42
2023-02-06T22:44:37.184Z,58.38
2023-02-06T22:54:40.382Z,58.23
2023-02-06T23:04:43.519Z,58.58
2023-02-06T23:14:45.890Z,59.00
2023-02-06T23:24:50.330Z,61.24
2023-02-06T23:34:52.681Z,59.88
2023-02-06T23:44:54.896Z,62.85
2023-02-06T23:54:57.348Z,62.61
